sensor_id;sensor_type;location;lat;lon;timestamp;pressure;altitude;pressure_sealevel;temperature;humidity
55014;BME280;40916;51.632;5.552;2022-09-20T00:01:44;1018.4891138358174;;;11.465664546699895;0
55014;BME280;40916;51.632;5.552;2022-09-20T00:02:44;1018.4830373215468;;;11.452149169913977;0
55014;BME280;40916;51.632;5.552;2022-09-20T00:03:44;1018.4363955595392;;;11.438632136738306;0
55014;BME280;40916;51.632;5.552;2022-09-20T00:04:46;1018.3576699277295;;;11.452149169913977;0
55014;BME280;40916;51.632;5.552;2022-09-20T00:05:44;1018.4399847285246;;;11.458907065291303;0
55014;BME280;40916;51.632;5.552;2022-09-20T00:06:44;1018.4166663311075;;;11.452149169913977;0
55014;BME280;40916;51.632;5.552;2022-09-20T00:07:44;1018.3834808504357;;;11.452149169913977;0
55014;BME280;40916;51.632;5.552;2022-09-20T00:08:44;1018.4303074607529;;;11.425113446142731;0
55014;BME280;40916;51.632;5.552;2022-09-20T00:09:44;1018.3860627522181;;;11.425113446142731;0
55014;BME280;40916;51.632;5.552;2022-09-20T00:10:44;1018.3823756939516;;;11.425113446142731;0
55014;BME280;40916;51.632;5.552;2022-09-20T00:11:45;1018.4020118438816;;;11.431872998682426;0
55014;BME280;40916;51.632;5.552;2022-09-20T00:12:45;1018.4044980453458;;;11.425113446142731;0
55014;BME280;40916;51.632;5.552;2022-09-20T00:13:45;1018.378688635805;;;11.425113446142731;0
55014;BME280;40916;51.632;5.552;2022-09-20T00:14:45;1018.39343686911;;;11.425113446142731;0
55014;BME280;40916;51.632;5.552;2022-09-20T00:15:45;1018.4290212229962;;;11.438632136738306;0
55014;BME280;40916;51.632;5.552;2022-09-20T00:16:45;1018.3995238816136;;;11.438632136738306;0
55014;BME280;40916;51.632;5.552;2022-09-20T00:17:45;1018.4241345244022;;;11.431872998682426;0
55014;BME280;40916;51.632;5.552;2022-09-20T00:18:46;1018.3897498106041;;;11.425113446142731;0
55014;BME280;40916;51.632;5.552;2022-09-20T00:19:45;1018.37386997666;;;11.39807108856698;0
55014;BME280;40916;51.632;5.552;2022-09-20T00:20:46;1018.3603295417252;;;11.404832300331485;0
55014;BME280;40916;51.632;5.552;2022-09-20T00:21:46;1018.4217989202006;;;11.39807108856698;0
55014;BME280;40916;51.632;5.552;2022-09-20T00:22:46;1018.4242129678144;;;11.411593097096244;0
55014;BME280;40916;51.632;5.552;2022-09-20T00:23:46;1018.5003616178575;;;11.425113446142731;0
55014;BME280;40916;51.632;5.552;2022-09-20T00:24:46;1018.39230418332;;;11.39807108856698;0
55014;BME280;40916;51.632;5.552;2022-09-20T00:25:52;1018.3775568177525;;;11.39807108856698;0
55014;BME280;40916;51.632;5.552;2022-09-20T00:26:46;1018.3886173417485;;;11.39807108856698;0
55014;BME280;40916;51.632;5.552;2022-09-20T00:27:46;1018.3837713449474;;;11.371022088928367;0
55014;BME280;40916;51.632;5.552;2022-09-20T00:28:46;1018.4500837254068;;;11.391309461673611;0
55014;BME280;40916;51.632;5.552;2022-09-20T00:29:46;1018.4243242206754;;;11.371022088928367;0
55014;BME280;40916;51.632;5.552;2022-09-20T00:30:47;1018.4636602786929;;;11.364258800227315;0
55014;BME280;40916;51.632;5.552;2022-09-20T00:31:47;1018.4599998425012;;;11.343966438954844;0
55014;BME280;40916;51.632;5.552;2022-09-20T00:32:47;1018.4428060606085;;;11.330436117503712;0
55014;BME280;40916;51.632;5.552;2022-09-20T00:33:47;1018.4710694776643;;;11.323670332208504;0
55014;BME280;40916;51.632;5.552;2022-09-20T00:34:47;1018.4292927081473;;;11.316904130360605;0
55014;BME280;40916;51.632;5.552;2022-09-20T00:35:47;1018.4772132122652;;;11.316904130360605;0
55014;BME280;40916;51.632;5.552;2022-09-20T00:36:47;1018.4526382418181;;;11.323670332208504;0
55014;BME280;40916;51.632;5.552;2022-09-20T00:37:47;1018.5005533098944;;;11.30337047648764;0
55014;BME280;40916;51.632;5.552;2022-09-20T00:38:47;1018.5521585202948;;;11.30337047648764;0
55014;BME280;40916;51.632;5.552;2022-09-20T00:39:47;1018.5644310164087;;;11.289835154846077;0
55014;BME280;40916;51.632;5.552;2022-09-20T00:40:48;1018.5766960024743;;;11.27629816439632;0
55014;BME280;40916;51.632;5.552;2022-09-20T00:41:48;1018.5803365592443;;;11.255989547430055;0
55014;BME280;40916;51.632;5.552;2022-09-20T00:42:48;1018.543420507736;;;11.235677169788861;0
55014;BME280;40916;51.632;5.552;2022-09-20T00:43:48;1018.5420896293604;;;11.208588143577916;0
55014;BME280;40916;51.632;5.552;2022-09-20T00:44:53;1018.5863135600771;;;11.208588143577916;0
55014;BME280;40916;51.632;5.552;2022-09-20T00:45:48;1018.5641059764449;;;11.188266977333587;0
55014;BME280;40916;51.632;5.552;2022-09-20T00:46:48;1018.6144338841036;;;11.181492417110128;0
55014;BME280;40916;51.632;5.552;2022-09-20T00:47:49;1018.5861050467252;;;11.167942038665192;0
55014;BME280;40916;51.632;5.552;2022-09-20T00:48:49;1018.5688257452995;;;11.154389982016639;0
55014;BME280;40916;51.632;5.552;2022-09-20T00:49:48;1018.566279777964;;;11.140836246116177;0
55014;BME280;40916;51.632;5.552;2022-09-20T00:50:50;1018.5600424577906;;;11.12728082991465;0
55014;BME280;40916;51.632;5.552;2022-09-20T00:51:49;1018.6189972796446;;;11.12728082991465;0
55014;BME280;40916;51.632;5.552;2022-09-20T00:52:50;1018.5819927153967;;;11.10694455275068;0
55014;BME280;40916;51.632;5.552;2022-09-20T00:53:49;1018.5302386626697;;;11.086604488998983;0
55014;BME280;40916;51.632;5.552;2022-09-20T00:54:49;1018.6160818197241;;;11.073042341084111;0
55014;BME280;40916;51.632;5.552;2022-09-20T00:55:50;1018.5814270719658;;;11.04591298751999;0
55014;BME280;40916;51.632;5.552;2022-09-20T00:56:49;1018.6143624864723;;;11.025561542675376;0
55014;BME280;40916;51.632;5.552;2022-09-20T00:57:49;1018.5943980079463;;;10.998420369875312;0
55014;BME280;40916;51.632;5.552;2022-09-20T00:58:50;1018.6075592603097;;;10.971272431593626;0
55014;BME280;40916;51.632;5.552;2022-09-20T00:59:49;1018.6193660364379;;;10.937327981866428;0
55014;BME280;40916;51.632;5.552;2022-09-20T01:00:50;1018.639828048261;;;10.910164790233;0
55014;BME280;40916;51.632;5.552;2022-09-20T01:01:51;1018.6887175224482;;;10.896580647541473;0
55014;BME280;40916;51.632;5.552;2022-09-20T01:02:51;1018.6170670078102;;;10.869407263083612;0
55014;BME280;40916;51.632;5.552;2022-09-20T01:03:50;1018.5872524960191;;;10.849022758850495;0
55014;BME280;40916;51.632;5.552;2022-09-20T01:04:50;1018.6816459060865;;;10.842227072748727;0
55014;BME280;40916;51.632;5.552;2022-09-20T01:05:50;1018.6310707416939;;;10.82863442270757;0
55014;BME280;40916;51.632;5.552;2022-09-20T01:06:50;1018.6983212653128;;;10.815040067991568;0
55014;BME280;40916;51.632;5.552;2022-09-20T01:07:50;1018.5713706873606;;;10.78784624025257;0
55014;BME280;40916;51.632;5.552;2022-09-20T01:08:50;1018.6436447753713;;;10.78104671622247;0
55014;BME280;40916;51.632;5.552;2022-09-20T01:09:51;1018.6634195809331;;;10.78784624025257;0
55014;BME280;40916;51.632;5.552;2022-09-20T01:10:51;1018.6901420919012;;;10.774246765086101;0
55014;BME280;40916;51.632;5.552;2022-09-20T01:11:51;1018.62891716799;;;10.78104671622247;0
55014;BME280;40916;51.632;5.552;2022-09-20T01:12:51;1018.6992837000514;;;10.801444007530332;0
55014;BME280;40916;51.632;5.552;2022-09-20T01:13:51;1018.5860985053179;;;10.78784624025257;0
55014;BME280;40916;51.632;5.552;2022-09-20T01:14:51;1018.6196377613;;;10.808242251046039;0
55014;BME280;40916;51.632;5.552;2022-09-20T01:15:51;1018.6159556420331;;;10.808242251046039;0
55014;BME280;40916;51.632;5.552;2022-09-20T01:16:52;1018.632042109894;;;10.815040067991568;0
55014;BME280;40916;51.632;5.552;2022-09-20T01:17:51;1018.6457998753709;;;10.82863442270757;0
55014;BME280;40916;51.632;5.552;2022-09-20T01:18:52;1018.6926930880045;;;10.842227072748727;0
55014;BME280;40916;51.632;5.552;2022-09-20T01:19:56;1018.6106945983335;;;10.855818019184543;0
55014;BME280;40916;51.632;5.552;2022-09-20T01:20:52;1018.5494369238626;;;10.862612853884418;0
55014;BME280;40916;51.632;5.552;2022-09-20T01:21:52;1018.6602600878148;;;10.88299480551365;0
55014;BME280;40916;51.632;5.552;2022-09-20T01:22:57;1018.6261094332708;;;10.896580647541473;0
55014;BME280;40916;51.632;5.552;2022-09-20T01:23:54;1018.6250963007549;;;10.910164790233;0
55014;BME280;40916;51.632;5.552;2022-09-20T01:24:54;1018.6388084018008;;;10.92374723465327;0
55014;BME280;40916;51.632;5.552;2022-09-20T01:25:58;1018.5812079315525;;;10.930537820344263;0
55014;BME280;40916;51.632;5.552;2022-09-20T01:26:56;1018.5959403267353;;;10.930537820344263;0
55014;BME280;40916;51.632;5.552;2022-09-20T01:27:53;1018.6046334204507;;;10.937327981866428;0
55014;BME280;40916;51.632;5.552;2022-09-20T01:28:55;1018.5457029756161;;;10.937327981866428;0
55014;BME280;40916;51.632;5.552;2022-09-20T01:29:57;1018.5209509915846;;;10.92374723465327;0
55014;BME280;40916;51.632;5.552;2022-09-20T01:30:54;1018.5222783699359;;;10.930537820344263;0
55014;BME280;40916;51.632;5.552;2022-09-20T01:31:54;1018.571485041468;;;10.937327981866428;0
55014;BME280;40916;51.632;5.552;2022-09-20T01:32:59;1018.4891305049662;;;10.930537820344263;0
55014;BME280;40916;51.632;5.552;2022-09-20T01:33:56;1018.4804375350752;;;10.92374723465327;0
55014;BME280;40916;51.632;5.552;2022-09-20T01:34:53;1018.4827920605366;;;10.916956224660513;0
55014;BME280;40916;51.632;5.552;2022-09-20T01:35:53;1018.5182911884929;;;10.910164790233;0
55014;BME280;40916;51.632;5.552;2022-09-20T01:36:55;1018.5146082553791;;;10.910164790233;0
55014;BME280;40916;51.632;5.552;2022-09-20T01:37:58;1018.4359354609778;;;10.903372931237687;0
55014;BME280;40916;51.632;5.552;2022-09-20T01:38:57;1018.4606941438506;;;10.916956224660513;0
55014;BME280;40916;51.632;5.552;2022-09-20T01:39:56;1018.4961935916019;;;10.910164790233;0
55014;BME280;40916;51.632;5.552;2022-09-20T01:40:57;1018.5748667596847;;;10.916956224660513;0
55014;BME280;40916;51.632;5.552;2022-09-20T01:41:55;1018.4185368907729;;;10.8897879390112;0
55014;BME280;40916;51.632;5.552;2022-09-20T01:42:57;1018.4740959990114;;;10.910164790233;0
55014;BME280;40916;51.632;5.552;2022-09-20T01:43:55;1018.4998765241185;;;10.910164790233;0
55014;BME280;40916;51.632;5.552;2022-09-20T01:44:55;1018.47644710474;;;10.903372931237687;0
55014;BME280;40916;51.632;5.552;2022-09-20T01:45:54;1018.4483154797575;;;10.910164790233;0
55014;BME280;40916;51.632;5.552;2022-09-20T01:46:55;1018.5109253223848;;;10.910164790233;0
55014;BME280;40916;51.632;5.552;2022-09-20T01:47:57;1018.5367058558537;;;10.910164790233;0
55014;BME280;40916;51.632;5.552;2022-09-20T01:48:57;1018.4777789308112;;;10.910164790233;0
55014;BME280;40916;51.632;5.552;2022-09-20T01:49:56;1018.5219741217262;;;10.910164790233;0
55014;BME280;40916;51.632;5.552;2022-09-20T01:51:03;1018.3967544588094;;;10.910164790233;0
55014;BME280;40916;51.632;5.552;2022-09-20T01:52:10;1018.492510659205;;;10.910164790233;0
55014;BME280;40916;51.632;5.552;2022-09-20T01:53:31;1018.462730098185;;;10.8897879390112;0
55014;BME280;40916;51.632;5.552;2022-09-20T01:54:02;1018.5276822472156;;;10.88299480551365;0
55014;BME280;40916;51.632;5.552;2022-09-20T01:56:16;1018.5266731272927;;;10.896580647541473;0
55014;BME280;40916;51.632;5.552;2022-09-20T01:57:16;1018.5156246542258;;;10.896580647541473;0
55014;BME280;40916;51.632;5.552;2022-09-20T01:58:01;1018.4982205258815;;;10.88299480551365;0
55014;BME280;40916;51.632;5.552;2022-09-20T01:59:04;1018.5571439761939;;;10.88299480551365;0
55014;BME280;40916;51.632;5.552;2022-09-20T02:00:12;1018.5387303946867;;;10.88299480551365;0
55014;BME280;40916;51.632;5.552;2022-09-20T02:01:03;1018.5561357273936;;;10.896580647541473;0
55014;BME280;40916;51.632;5.552;2022-09-20T02:02:00;1018.5290199415527;;;10.8897879390112;0
55014;BME280;40916;51.632;5.552;2022-09-20T02:03:04;1018.6113781231869;;;10.896580647541473;0
55014;BME280;40916;51.632;5.552;2022-09-20T02:04:07;1018.5571439761939;;;10.88299480551365;0
55014;BME280;40916;51.632;5.552;2022-09-20T02:05:01;1018.5313649629198;;;10.88299480551365;0
55014;BME280;40916;51.632;5.552;2022-09-20T02:06:02;1018.5792402779438;;;10.88299480551365;0
55014;BME280;40916;51.632;5.552;2022-09-20T02:07:02;1018.5779001360693;;;10.876201246915564;0
55014;BME280;40916;51.632;5.552;2022-09-20T02:08:01;1018.6003296418783;;;10.896580647541473;0
55014;BME280;40916;51.632;5.552;2022-09-20T02:09:16;1018.5842615072545;;;10.8897879390112;0
55014;BME280;40916;51.632;5.552;2022-09-20T02:10:02;1018.5782326824859;;;10.896580647541473;0
55014;BME280;40916;51.632;5.552;2022-09-20T02:11:03;1018.5882669403509;;;10.910164790233;0
55014;BME280;40916;51.632;5.552;2022-09-20T02:12:02;1018.6545597976786;;;10.910164790233;0
55014;BME280;40916;51.632;5.552;2022-09-20T02:12:58;1018.5989925959806;;;10.8897879390112;0
55014;BME280;40916;51.632;5.552;2022-09-20T02:14:03;1018.5658476490345;;;10.8897879390112;0
55014;BME280;40916;51.632;5.552;2022-09-20T02:15:00;1018.5852654619222;;;10.876201246915564;0
55014;BME280;40916;51.632;5.552;2022-09-20T02:16:03;1018.6013365839938;;;10.88299480551365;0
55014;BME280;40916;51.632;5.552;2022-09-20T02:17:01;1018.5594868235273;;;10.876201246915564;0
55014;BME280;40916;51.632;5.552;2022-09-20T02:17:59;1018.4610556876468;;;10.862612853884418;0
55014;BME280;40916;51.632;5.552;2022-09-20T02:19:06;1018.5926307882528;;;10.876201246915564;0
55014;BME280;40916;51.632;5.552;2022-09-20T02:20:00;1018.5407271112789;;;10.855818019184543;0
55014;BME280;40916;51.632;5.552;2022-09-20T02:21:00;1018.5752147973834;;;10.862612853884418;0
55014;BME280;40916;51.632;5.552;2022-09-20T02:22:04;1018.6106945983335;;;10.855818019184543;0
55014;BME280;40916;51.632;5.552;2022-09-20T02:24:00;1018.5075846324586;;;10.855818019184543;0
55014;BME280;40916;51.632;5.552;2022-09-20T02:25:01;1018.5283333878767;;;10.849022758850495;0
55014;BME280;40916;51.632;5.552;2022-09-20T02:26:04;1018.3981019379947;;;10.842227072748727;0
55014;BME280;40916;51.632;5.552;2022-09-20T02:27:01;1018.3097247420254;;;10.842227072748727;0
55014;BME280;40916;51.632;5.552;2022-09-20T02:28:02;1018.3833724005565;;;10.842227072748727;0
55014;BME280;40916;51.632;5.552;2022-09-20T02:29:01;1018.3397970372972;;;10.808242251046039;0
55014;BME280;40916;51.632;5.552;2022-09-20T02:30:03;1018.3927010374179;;;10.815040067991568;0
55014;BME280;40916;51.632;5.552;2022-09-20T02:31:01;1018.4051004575542;;;10.821837458500802;0
55014;BME280;40916;51.632;5.552;2022-09-20T02:32:05;1018.3485150484329;;;10.815040067991568;0
55014;BME280;40916;51.632;5.552;2022-09-20T02:33:05;1018.3826263444242;;;10.801444007530332;0
55014;BME280;40916;51.632;5.552;2022-09-20T02:34:03;1018.3899904589443;;;10.801444007530332;0
55014;BME280;40916;51.632;5.552;2022-09-20T02:35:03;1018.3444486108725;;;10.794645337310506;0
55014;BME280;40916;51.632;5.552;2022-09-20T02:36:05;1018.3936725163836;;;10.801444007530332;0
55014;BME280;40916;51.632;5.552;2022-09-20T02:37:05;1018.4663443906019;;;10.815040067991568;0
55014;BME280;40916;51.632;5.552;2022-09-20T02:38:03;1018.3779723725124;;;10.815040067991568;0
55014;BME280;40916;51.632;5.552;2022-09-20T02:39:02;1018.3742902065845;;;10.815040067991568;0
55014;BME280;40916;51.632;5.552;2022-09-20T02:40:05;1018.3448328834604;;;10.815040067991568;0
55014;BME280;40916;51.632;5.552;2022-09-20T02:41:06;1018.4456048997545;;;10.821837458500802;0
55014;BME280;40916;51.632;5.552;2022-09-20T02:42:03;1018.330104224764;;;10.815040067991568;0
55014;BME280;40916;51.632;5.552;2022-09-20T02:43:02;1018.3880403118621;;;10.82863442270757;0
55014;BME280;40916;51.632;5.552;2022-09-20T02:44:02;1018.3622643876926;;;10.82863442270757;0
55014;BME280;40916;51.632;5.552;2022-09-20T02:45:02;1018.3636132781027;;;10.83543096074564;0
55014;BME280;40916;51.632;5.552;2022-09-20T02:46:02;1018.3636132781027;;;10.83543096074564;0
55014;BME280;40916;51.632;5.552;2022-09-20T02:47:04;1018.3281366521799;;;10.842227072748727;0
55014;BME280;40916;51.632;5.552;2022-09-20T02:48:02;1018.4007922665073;;;10.855818019184543;0
55014;BME280;40916;51.632;5.552;2022-09-20T02:49:03;1018.4707596673369;;;10.855818019184543;0
55014;BME280;40916;51.632;5.552;2022-09-20T02:50:05;1018.4101339658074;;;10.82863442270757;0
55014;BME280;40916;51.632;5.552;2022-09-20T02:51:03;1018.3599309491672;;;10.83543096074564;0
55014;BME280;40916;51.632;5.552;2022-09-20T02:52:03;1018.3328061958061;;;10.82863442270757;0
55014;BME280;40916;51.632;5.552;2022-09-20T02:53:04;1018.3585821132888;;;10.82863442270757;0
55014;BME280;40916;51.632;5.552;2022-09-20T02:54:03;1018.4091490923273;;;10.842227072748727;0
55014;BME280;40916;51.632;5.552;2022-09-20T02:55:04;1018.475432040893;;;10.842227072748727;0
55014;BME280;40916;51.632;5.552;2022-09-20T02:56:04;1018.4436372234826;;;10.849022758850495;0
55014;BME280;40916;51.632;5.552;2022-09-20T02:57:03;1018.4349257899496;;;10.842227072748727;0
55014;BME280;40916;51.632;5.552;2022-09-20T02:58:04;1018.3954048626996;;;10.82863442270757;0
55014;BME280;40916;51.632;5.552;2022-09-20T02:59:03;1018.4680672669194;;;10.842227072748727;0
55014;BME280;40916;51.632;5.552;2022-09-20T03:00:03;1018.447319664099;;;10.849022758850495;0
55014;BME280;40916;51.632;5.552;2022-09-20T03:01:04;1018.4580035641027;;;10.82863442270757;0
55014;BME280;40916;51.632;5.552;2022-09-20T03:02:05;1018.4791144280588;;;10.842227072748727;0
55014;BME280;40916;51.632;5.552;2022-09-20T03:03:05;1018.4027694140148;;;10.82863442270757;0
55014;BME280;40916;51.632;5.552;2022-09-20T03:04:07;1018.4616858417306;;;10.82863442270757;0
55014;BME280;40916;51.632;5.552;2022-09-20T03:05:08;1018.3907371690367;;;10.842227072748727;0
55014;BME280;40916;51.632;5.552;2022-09-20T03:06:04;1018.5075846324586;;;10.855818019184543;0
55014;BME280;40916;51.632;5.552;2022-09-20T03:07:05;1018.496537141668;;;10.855818019184543;0
55014;BME280;40916;51.632;5.552;2022-09-20T03:08:09;1018.4647382377824;;;10.862612853884418;0
55014;BME280;40916;51.632;5.552;2022-09-20T03:09:05;1018.4449821988575;;;10.855818019184543;0
55014;BME280;40916;51.632;5.552;2022-09-20T03:10:06;1018.4781246594058;;;10.855818019184543;0
55014;BME280;40916;51.632;5.552;2022-09-20T03:11:07;1018.4500080379566;;;10.862612853884418;0
55014;BME280;40916;51.632;5.552;2022-09-20T03:12:09;1018.4610556876468;;;10.862612853884418;0
55014;BME280;40916;51.632;5.552;2022-09-20T03:13:09;1018.5484388374352;;;10.876201246915564;0
55014;BME280;40916;51.632;5.552;2022-09-20T03:14:07;1018.5102713794023;;;10.869407263083612;0
55014;BME280;40916;51.632;5.552;2022-09-20T03:15:08;1018.4128314773437;;;10.842227072748727;0
55014;BME280;40916;51.632;5.552;2022-09-20T03:16:07;1018.4955409557804;;;10.869407263083612;0
55014;BME280;40916;51.632;5.552;2022-09-20T03:17:05;1018.4821509434568;;;10.876201246915564;0
55014;BME280;40916;51.632;5.552;2022-09-20T03:19:07;1018.4650760985178;;;10.88299480551365;0
55014;BME280;40916;51.632;5.552;2022-09-20T03:20:07;1018.454027958213;;;10.88299480551365;0
55014;BME280;40916;51.632;5.552;2022-09-20T03:21:08;1018.4416416939644;;;10.876201246915564;0
55014;BME280;40916;51.632;5.552;2022-09-20T03:22:11;1018.3890747620534;;;10.8897879390112;0
55014;BME280;40916;51.632;5.552;2022-09-20T03:23:07;1018.4332679579991;;;10.8897879390112;0
55014;BME280;40916;51.632;5.552;2022-09-20T03:24:07;1018.3853919965011;;;10.8897879390112;0
55014;BME280;40916;51.632;5.552;2022-09-20T03:25:11;1018.4392971061458;;;10.88299480551365;0
55014;BME280;40916;51.632;5.552;2022-09-20T03:26:06;1018.4342763774274;;;10.876201246915564;0
55014;BME280;40916;51.632;5.552;2022-09-20T03:27:06;1018.4071584541774;;;10.869407263083612;0
55014;BME280;40916;51.632;5.552;2022-09-20T03:28:08;1018.3997932488156;;;10.869407263083612;0
55014;BME280;40916;51.632;5.552;2022-09-20T03:29:07;1018.4403018842169;;;10.869407263083612;0
55014;BME280;40916;51.632;5.552;2022-09-20T03:30:12;1018.4034758514368;;;10.869407263083612;0
55014;BME280;40916;51.632;5.552;2022-09-20T03:31:09;1018.3492373671672;;;10.855818019184543;0
55014;BME280;40916;51.632;5.552;2022-09-20T03:32:10;1018.4225305573098;;;10.83543096074564;0
55014;BME280;40916;51.632;5.552;2022-09-20T03:33:07;1018.3585821132888;;;10.82863442270757;0
55014;BME280;40916;51.632;5.552;2022-09-20T03:34:08;1018.4322276240515;;;10.82863442270757;0
55014;BME280;40916;51.632;5.552;2022-09-20T03:35:12;1018.3950287045143;;;10.808242251046039;0
55014;BME280;40916;51.632;5.552;2022-09-20T03:36:10;1018.5169200204774;;;10.82863442270757;0
55014;BME280;40916;51.632;5.552;2022-09-20T03:37:13;1018.3863084016247;;;10.801444007530332;0
55014;BME280;40916;51.632;5.552;2022-09-20T03:38:10;1018.3812686308336;;;10.794645337310506;0
55014;BME280;40916;51.632;5.552;2022-09-20T03:39:10;1018.5138208015508;;;10.794645337310506;0
55014;BME280;40916;51.632;5.552;2022-09-20T03:40:18;1018.4213674272543;;;10.774246765086101;0
55014;BME280;40916;51.632;5.552;2022-09-20T03:41:10;1018.482592674457;;;10.767446386709295;0
55014;BME280;40916;51.632;5.552;2022-09-20T03:42:10;1018.4581858368608;;;10.774246765086101;0
55014;BME280;40916;51.632;5.552;2022-09-20T03:43:10;1018.4283119978747;;;10.753844347697445;0
55014;BME280;40916;51.632;5.552;2022-09-20T03:44:11;1018.5207771605899;;;10.774246765086101;0
55014;BME280;40916;51.632;5.552;2022-09-20T03:45:19;1018.4457748020982;;;10.767446386709295;0
55014;BME280;40916;51.632;5.552;2022-09-20T03:46:12;1018.4839587306884;;;10.774246765086101;0
55014;BME280;40916;51.632;5.552;2022-09-20T03:47:09;1018.4876405731413;;;10.774246765086101;0
55014;BME280;40916;51.632;5.552;2022-09-20T03:48:13;1018.4213674272543;;;10.774246765086101;0
55014;BME280;40916;51.632;5.552;2022-09-20T03:49:18;1018.4632317165737;;;10.78104671622247;0
55014;BME280;40916;51.632;5.552;2022-09-20T03:50:15;1018.4595498203992;;;10.78104671622247;0
55014;BME280;40916;51.632;5.552;2022-09-20T03:51:11;1018.4585907116142;;;10.794645337310506;0
55014;BME280;40916;51.632;5.552;2022-09-20T03:52:10;1018.4475446968504;;;10.794645337310506;0
55014;BME280;40916;51.632;5.552;2022-09-20T03:53:14;1018.5239026991626;;;10.808242251046039;0
55014;BME280;40916;51.632;5.552;2022-09-20T03:54:14;1018.4107246553988;;;10.794645337310506;0
55014;BME280;40916;51.632;5.552;2022-09-20T03:55:29;1018.4415392739578;;;10.801444007530332;0
55014;BME280;40916;51.632;5.552;2022-09-20T03:56:11;1018.4502603985965;;;10.808242251046039;0
55014;BME280;40916;51.632;5.552;2022-09-20T03:57:13;1018.430493097342;;;10.801444007530332;0
55014;BME280;40916;51.632;5.552;2022-09-20T03:58:12;1018.4010366316201;;;10.801444007530332;0
55014;BME280;40916;51.632;5.552;2022-09-20T03:59:13;1018.397354573942;;;10.801444007530332;0
55014;BME280;40916;51.632;5.552;2022-09-20T04:00:14;1018.4359099008434;;;10.82863442270757;0
55014;BME280;40916;51.632;5.552;2022-09-20T04:01:14;1018.3518126139095;;;10.794645337310506;0
55014;BME280;40916;51.632;5.552;2022-09-20T04:02:13;1018.4074297042337;;;10.815040067991568;0
55014;BME280;40916;51.632;5.552;2022-09-20T04:03:13;1018.4134392662232;;;10.808242251046039;0
55014;BME280;40916;51.632;5.552;2022-09-20T04:04:11;1018.4800972316609;;;10.82863442270757;0
55014;BME280;40916;51.632;5.552;2022-09-20T04:05:11;1018.4382404546434;;;10.821837458500802;0
55014;BME280;40916;51.632;5.552;2022-09-20T04:06:16;1018.4864792027488;;;10.842227072748727;0
55014;BME280;40916;51.632;5.552;2022-09-20T04:07:11;1018.4027694140148;;;10.82863442270757;0
55014;BME280;40916;51.632;5.552;2022-09-20T04:08:13;1018.503902135409;;;10.855818019184543;0
55014;BME280;40916;51.632;5.552;2022-09-20T04:09:24;1018.4587149050856;;;10.869407263083612;0
55014;BME280;40916;51.632;5.552;2022-09-20T04:10:12;1018.4600549873967;;;10.876201246915564;0
55014;BME280;40916;51.632;5.552;2022-09-20T04:11:11;1018.4439844881516;;;10.869407263083612;0
55014;BME280;40916;51.632;5.552;2022-09-20T04:12:11;1018.4784682838149;;;10.876201246915564;0
55014;BME280;40916;51.632;5.552;2022-09-20T04:13:14;1018.4466625319404;;;10.88299480551365;0
55014;BME280;40916;51.632;5.552;2022-09-20T04:14:11;1018.4335837570976;;;10.910164790233;0
55014;BME280;40916;51.632;5.552;2022-09-20T04:15:16;1018.5149121768841;;;10.930537820344263;0
55014;BME280;40916;51.632;5.552;2022-09-20T04:16:14;1018.48308941149;;;10.937327981866428;0
55014;BME280;40916;51.632;5.552;2022-09-20T04:17:15;1018.5362567839728;;;10.964484388923534;0
55014;BME280;40916;51.632;5.552;2022-09-20T04:18:11;1018.3873275566676;;;10.937327981866428;0
55014;BME280;40916;51.632;5.552;2022-09-20T04:19:11;1018.4328479793052;;;10.94411771935264;0